sensor_id;sensor_type;location;lat;lon;timestamp;temperature;humidity
9849;DHT22;4963;51.444;6.528;2023-06-19T00:02:25;23.80;95.50
9849;DHT22;4963;51.444;6.528;2023-06-19T00:04:52;23.80;95.60
9849;DHT22;4963;51.444;6.528;2023-06-19T00:07:19;23.80;95.70
9849;DHT22;4963;51.444;6.528;2023-06-19T00:09:47;23.80;96.10
9849;DHT22;4963;51.444;6.528;2023-06-19T00:12:15;23.70;95.90
9849;DHT22;4963;51.444;6.528;2023-06-19T00:14:42;23.70;96.20
9849;DHT22;4963;51.444;6.528;2023-06-19T00:17:09;23.70;96.20
9849;DHT22;4963;51.444;6.528;2023-06-19T00:19:36;23.80;96.20
9849;DHT22;4963;51.444;6.528;2023-06-19T00:22:04;23.80;96.00
9849;DHT22;4963;51.444;6.528;2023-06-19T00:24:31;23.80;96.20
9849;DHT22;4963;51.444;6.528;2023-06-19T00:26:58;23.70;96.60
9849;DHT22;4963;51.444;6.528;2023-06-19T00:29:29;23.70;96.50
9849;DHT22;4963;51.444;6.528;2023-06-19T00:31:56;23.60;96.60
9849;DHT22;4963;51.444;6.528;2023-06-19T00:34:23;23.60;96.70
9849;DHT22;4963;51.444;6.528;2023-06-19T00:36:50;23.60;97.00
9849;DHT22;4963;51.444;6.528;2023-06-19T00:39:21;23.50;97.20
9849;DHT22;4963;51.444;6.528;2023-06-19T00:41:49;23.50;96.90
9849;DHT22;4963;51.444;6.528;2023-06-19T00:44:17;23.50;97.00
9849;DHT22;4963;51.444;6.528;2023-06-19T00:46:46;23.50;97.20
9849;DHT22;4963;51.444;6.528;2023-06-19T00:49:13;23.50;97.00
9849;DHT22;4963;51.444;6.528;2023-06-19T00:51:41;23.50;97.10
9849;DHT22;4963;51.444;6.528;2023-06-19T00:54:07;23.60;97.00
9849;DHT22;4963;51.444;6.528;2023-06-19T00:56:38;23.50;96.90
9849;DHT22;4963;51.444;6.528;2023-06-19T00:59:13;23.50;97.00
9849;DHT22;4963;51.444;6.528;2023-06-19T01:01:41;23.50;97.00
9849;DHT22;4963;51.444;6.528;2023-06-19T01:04:10;23.50;97.20
9849;DHT22;4963;51.444;6.528;2023-06-19T01:06:43;23.40;97.40
9849;DHT22;4963;51.444;6.528;2023-06-19T01:09:13;23.30;97.30
9849;DHT22;4963;51.444;6.528;2023-06-19T01:11:45;23.30;97.50
9849;DHT22;4963;51.444;6.528;2023-06-19T01:14:15;23.30;97.90
9849;DHT22;4963;51.444;6.528;2023-06-19T01:16:44;23.20;97.70
9849;DHT22;4963;51.444;6.528;2023-06-19T01:19:18;23.20;98.00
9849;DHT22;4963;51.444;6.528;2023-06-19T01:21:45;23.20;98.00
9849;DHT22;4963;51.444;6.528;2023-06-19T01:24:14;23.10;98.10
9849;DHT22;4963;51.444;6.528;2023-06-19T01:26:41;23.10;98.30
9849;DHT22;4963;51.444;6.528;2023-06-19T01:29:11;23.00;98.20
9849;DHT22;4963;51.444;6.528;2023-06-19T01:31:44;23.00;98.50
9849;DHT22;4963;51.444;6.528;2023-06-19T01:34:13;23.00;98.50
9849;DHT22;4963;51.444;6.528;2023-06-19T01:36:42;23.00;98.50
9849;DHT22;4963;51.444;6.528;2023-06-19T01:39:10;23.00;98.30
9849;DHT22;4963;51.444;6.528;2023-06-19T01:41:40;23.00;98.50
9849;DHT22;4963;51.444;6.528;2023-06-19T01:44:07;23.00;98.60
9849;DHT22;4963;51.444;6.528;2023-06-19T01:46:34;23.00;98.60
9849;DHT22;4963;51.444;6.528;2023-06-19T01:49:01;23.00;98.70
9849;DHT22;4963;51.444;6.528;2023-06-19T01:51:34;22.90;98.70
9849;DHT22;4963;51.444;6.528;2023-06-19T01:54:01;22.90;98.90
9849;DHT22;4963;51.444;6.528;2023-06-19T01:56:28;22.90;99.00
9849;DHT22;4963;51.444;6.528;2023-06-19T01:58:56;22.90;99.10
9849;DHT22;4963;51.444;6.528;2023-06-19T02:01:23;22.90;99.30
9849;DHT22;4963;51.444;6.528;2023-06-19T02:03:50;22.90;99.30
9849;DHT22;4963;51.444;6.528;2023-06-19T02:06:17;22.80;99.30
9849;DHT22;4963;51.444;6.528;2023-06-19T02:08:44;22.80;99.30
9849;DHT22;4963;51.444;6.528;2023-06-19T02:11:11;22.80;99.40
9849;DHT22;4963;51.444;6.528;2023-06-19T02:13:38;22.80;99.50
9849;DHT22;4963;51.444;6.528;2023-06-19T02:16:06;22.80;99.50
9849;DHT22;4963;51.444;6.528;2023-06-19T02:18:33;22.70;99.70
9849;DHT22;4963;51.444;6.528;2023-06-19T02:21:00;22.70;99.70
9849;DHT22;4963;51.444;6.528;2023-06-19T02:23:26;22.70;99.80
9849;DHT22;4963;51.444;6.528;2023-06-19T02:25:53;22.70;99.90
9849;DHT22;4963;51.444;6.528;2023-06-19T02:28:20;22.60;99.90
9849;DHT22;4963;51.444;6.528;2023-06-19T02:30:47;22.60;99.90
9849;DHT22;4963;51.444;6.528;2023-06-19T02:33:15;22.60;99.90
9849;DHT22;4963;51.444;6.528;2023-06-19T02:35:42;22.60;99.90
9849;DHT22;4963;51.444;6.528;2023-06-19T02:38:10;22.60;99.90
9849;DHT22;4963;51.444;6.528;2023-06-19T02:40:38;22.60;99.70
9849;DHT22;4963;51.444;6.528;2023-06-19T02:43:04;22.70;99.70
9849;DHT22;4963;51.444;6.528;2023-06-19T02:45:31;22.70;99.80
9849;DHT22;4963;51.444;6.528;2023-06-19T02:47:58;22.60;99.80
9849;DHT22;4963;51.444;6.528;2023-06-19T02:50:26;22.70;99.80
9849;DHT22;4963;51.444;6.528;2023-06-19T02:52:53;22.70;99.60
9849;DHT22;4963;51.444;6.528;2023-06-19T02:55:20;22.70;99.40
9849;DHT22;4963;51.444;6.528;2023-06-19T02:57:47;22.80;99.60
9849;DHT22;4963;51.444;6.528;2023-06-19T03:00:14;22.90;99.50
9849;DHT22;4963;51.444;6.528;2023-06-19T03:02:41;22.90;99.50
9849;DHT22;4963;51.444;6.528;2023-06-19T03:05:09;22.90;99.90
9849;DHT22;4963;51.444;6.528;2023-06-19T03:07:38;22.80;99.70
9849;DHT22;4963;51.444;6.528;2023-06-19T03:10:05;22.80;99.80
9849;DHT22;4963;51.444;6.528;2023-06-19T03:12:32;22.80;99.80
9849;DHT22;4963;51.444;6.528;2023-06-19T03:14:59;22.80;99.70
9849;DHT22;4963;51.444;6.528;2023-06-19T03:17:26;22.90;99.90
9849;DHT22;4963;51.444;6.528;2023-06-19T03:19:53;22.90;99.90
9849;DHT22;4963;51.444;6.528;2023-06-19T03:22:20;22.90;99.90
9849;DHT22;4963;51.444;6.528;2023-06-19T03:24:48;22.90;99.90
9849;DHT22;4963;51.444;6.528;2023-06-19T03:27:15;22.90;99.90
9849;DHT22;4963;51.444;6.528;2023-06-19T03:29:42;22.90;99.90
9849;DHT22;4963;51.444;6.528;2023-06-19T03:32:09;22.80;99.90
9849;DHT22;4963;51.444;6.528;2023-06-19T03:34:36;22.80;99.90
9849;DHT22;4963;51.444;6.528;2023-06-19T03:37:03;22.80;99.90
9849;DHT22;4963;51.444;6.528;2023-06-19T03:39:30;22.80;99.90
9849;DHT22;4963;51.444;6.528;2023-06-19T03:41:58;22.70;99.90
9849;DHT22;4963;51.444;6.528;2023-06-19T03:44:25;22.70;99.90
9849;DHT22;4963;51.444;6.528;2023-06-19T03:46:52;22.70;99.90
9849;DHT22;4963;51.444;6.528;2023-06-19T03:49:19;22.70;99.90
9849;DHT22;4963;51.444;6.528;2023-06-19T03:51:46;22.70;99.90
9849;DHT22;4963;51.444;6.528;2023-06-19T03:54:13;22.60;99.90
9849;DHT22;4963;51.444;6.528;2023-06-19T03:56:39;22.60;99.90
9849;DHT22;4963;51.444;6.528;2023-06-19T03:59:08;22.60;99.90
9849;DHT22;4963;51.444;6.528;2023-06-19T04:01:35;22.60;99.90
9849;DHT22;4963;51.444;6.528;2023-06-19T04:04:01;22.60;99.90
9849;DHT22;4963;51.444;6.528;2023-06-19T04:06:28;22.50;99.90
9849;DHT22;4963;51.444;6.528;2023-06-19T04:08:55;22.50;99.90
9849;DHT22;4963;51.444;6.528;2023-06-19T04:11:22;22.50;99.90
9849;DHT22;4963;51.444;6.528;2023-06-19T04:13:49;22.50;99.90
9849;DHT22;4963;51.444;6.528;2023-06-19T04:16:17;22.30;99.90
9849;DHT22;4963;51.444;6.528;2023-06-19T04:18:44;22.20;99.90
9849;DHT22;4963;51.444;6.528;2023-06-19T04:21:11;22.20;99.90
9849;DHT22;4963;51.444;6.528;2023-06-19T04:23:38;22.20;99.90
9849;DHT22;4963;51.444;6.528;2023-06-19T04:26:05;22.10;99.90
9849;DHT22;4963;51.444;6.528;2023-06-19T04:28:32;22.10;99.90
9849;DHT22;4963;51.444;6.528;2023-06-19T04:30:59;22.10;99.90
9849;DHT22;4963;51.444;6.528;2023-06-19T04:33:28;22.10;99.90
9849;DHT22;4963;51.444;6.528;2023-06-19T04:35:55;22.10;99.90
9849;DHT22;4963;51.444;6.528;2023-06-19T04:38:22;22.20;99.90
9849;DHT22;4963;51.444;6.528;2023-06-19T04:40:50;22.20;99.90
9849;DHT22;4963;51.444;6.528;2023-06-19T04:43:17;22.20;99.90
9849;DHT22;4963;51.444;6.528;2023-06-19T04:45:44;22.20;99.90
9849;DHT22;4963;51.444;6.528;2023-06-19T04:48:11;22.20;99.90
9849;DHT22;4963;51.444;6.528;2023-06-19T04:50:39;22.20;99.90
9849;DHT22;4963;51.444;6.528;2023-06-19T04:53:06;22.20;99.90
9849;DHT22;4963;51.444;6.528;2023-06-19T04:55:33;22.20;99.90
9849;DHT22;4963;51.444;6.528;2023-06-19T04:58:00;22.20;99.90
9849;DHT22;4963;51.444;6.528;2023-06-19T05:00:27;22.20;99.90
9849;DHT22;4963;51.444;6.528;2023-06-19T05:02:53;22.30;99.90
9849;DHT22;4963;51.444;6.528;2023-06-19T05:05:25;22.40;99.90
9849;DHT22;4963;51.444;6.528;2023-06-19T05:07:53;22.40;99.90
9849;DHT22;4963;51.444;6.528;2023-06-19T05:10:20;22.40;99.90
9849;DHT22;4963;51.444;6.528;2023-06-19T05:12:47;22.50;99.90
9849;DHT22;4963;51.444;6.528;2023-06-19T05:15:15;22.50;99.90
9849;DHT22;4963;51.444;6.528;2023-06-19T05:17:42;22.40;99.90
9849;DHT22;4963;51.444;6.528;2023-06-19T05:20:12;22.40;99.90
9849;DHT22;4963;51.444;6.528;2023-06-19T05:22:39;22.40;99.90
9849;DHT22;4963;51.444;6.528;2023-06-19T05:25:08;22.30;99.90
9849;DHT22;4963;51.444;6.528;2023-06-19T05:27:35;22.30;99.90
9849;DHT22;4963;51.444;6.528;2023-06-19T05:30:02;22.20;99.90
9849;DHT22;4963;51.444;6.528;2023-06-19T05:32:29;22.10;99.90
9849;DHT22;4963;51.444;6.528;2023-06-19T05:34:56;21.90;99.90
9849;DHT22;4963;51.444;6.528;2023-06-19T05:37:23;21.90;99.90
9849;DHT22;4963;51.444;6.528;2023-06-19T05:39:50;21.90;99.90
9849;DHT22;4963;51.444;6.528;2023-06-19T05:42:18;22.00;99.90
9849;DHT22;4963;51.444;6.528;2023-06-19T05:44:45;22.00;99.90
9849;DHT22;4963;51.444;6.528;2023-06-19T05:47:12;22.00;99.90
9849;DHT22;4963;51.444;6.528;2023-06-19T05:49:42;22.00;99.90
9849;DHT22;4963;51.444;6.528;2023-06-19T05:52:09;22.00;99.90
9849;DHT22;4963;51.444;6.528;2023-06-19T05:54:36;22.10;99.90
9849;DHT22;4963;51.444;6.528;2023-06-19T05:57:03;22.10;99.90
9849;DHT22;4963;51.444;6.528;2023-06-19T05:59:34;22.10;99.90
9849;DHT22;4963;51.444;6.528;2023-06-19T06:02:01;22.20;99.90
9849;DHT22;4963;51.444;6.528;2023-06-19T06:04:28;22.20;99.90
9849;DHT22;4963;51.444;6.528;2023-06-19T06:06:56;22.20;99.90
9849;DHT22;4963;51.444;6.528;2023-06-19T06:09:23;22.20;99.90
9849;DHT22;4963;51.444;6.528;2023-06-19T06:11:49;22.20;99.90
9849;DHT22;4963;51.444;6.528;2023-06-19T06:14:16;22.30;99.90
9849;DHT22;4963;51.444;6.528;2023-06-19T06:16:44;22.20;99.90
9849;DHT22;4963;51.444;6.528;2023-06-19T06:19:11;22.30;99.90
9849;DHT22;4963;51.444;6.528;2023-06-19T06:21:38;22.30;99.90
9849;DHT22;4963;51.444;6.528;2023-06-19T06:24:06;22.30;99.90
9849;DHT22;4963;51.444;6.528;2023-06-19T06:26:33;22.20;99.90
9849;DHT22;4963;51.444;6.528;2023-06-19T06:29:01;22.30;99.90
9849;DHT22;4963;51.444;6.528;2023-06-19T06:31:27;22.30;99.90
9849;DHT22;4963;51.444;6.528;2023-06-19T06:33:55;22.30;99.90
9849;DHT22;4963;51.444;6.528;2023-06-19T06:36:22;22.30;99.90
9849;DHT22;4963;51.444;6.528;2023-06-19T06:38:50;22.30;99.90
9849;DHT22;4963;51.444;6.528;2023-06-19T06:41:17;22.40;99.90
9849;DHT22;4963;51.444;6.528;2023-06-19T06:43:44;22.40;99.90
9849;DHT22;4963;51.444;6.528;2023-06-19T06:46:11;22.40;99.90
9849;DHT22;4963;51.444;6.528;2023-06-19T06:48:38;22.50;99.90
9849;DHT22;4963;51.444;6.528;2023-06-19T06:51:28;22.40;99.90
9849;DHT22;4963;51.444;6.528;2023-06-19T06:53:55;22.40;99.90
9849;DHT22;4963;51.444;6.528;2023-06-19T06:56:22;22.40;99.90
9849;DHT22;4963;51.444;6.528;2023-06-19T06:58:49;22.40;99.90
9849;DHT22;4963;51.444;6.528;2023-06-19T07:01:15;22.30;99.90
9849;DHT22;4963;51.444;6.528;2023-06-19T07:03:42;22.20;99.90
9849;DHT22;4963;51.444;6.528;2023-06-19T07:06:09;22.20;99.90
9849;DHT22;4963;51.444;6.528;2023-06-19T07:08:38;22.10;99.90
9849;DHT22;4963;51.444;6.528;2023-06-19T07:11:06;22.20;99.90
9849;DHT22;4963;51.444;6.528;2023-06-19T07:13:33;22.30;99.90
9849;DHT22;4963;51.444;6.528;2023-06-19T07:16:00;22.30;99.90
9849;DHT22;4963;51.444;6.528;2023-06-19T07:18:27;22.40;99.90
9849;DHT22;4963;51.444;6.528;2023-06-19T07:20:54;22.40;99.90
9849;DHT22;4963;51.444;6.528;2023-06-19T07:23:21;22.40;99.90
9849;DHT22;4963;51.444;6.528;2023-06-19T07:25:52;22.50;99.90
9849;DHT22;4963;51.444;6.528;2023-06-19T07:28:19;22.60;99.90
9849;DHT22;4963;51.444;6.528;2023-06-19T07:30:46;22.80;99.90
9849;DHT22;4963;51.444;6.528;2023-06-19T07:33:13;22.90;99.90
9849;DHT22;4963;51.444;6.528;2023-06-19T07:35:40;23.20;99.90
9849;DHT22;4963;51.444;6.528;2023-06-19T07:38:07;23.40;99.90
9849;DHT22;4963;51.444;6.528;2023-06-19T07:40:34;23.60;99.90
9849;DHT22;4963;51.444;6.528;2023-06-19T07:43:02;23.80;99.90
9849;DHT22;4963;51.444;6.528;2023-06-19T07:45:29;24.00;99.90
9849;DHT22;4963;51.444;6.528;2023-06-19T07:47:57;23.90;99.90
9849;DHT22;4963;51.444;6.528;2023-06-19T07:50:24;23.90;99.90
9849;DHT22;4963;51.444;6.528;2023-06-19T07:52:50;24.20;99.90
9849;DHT22;4963;51.444;6.528;2023-06-19T07:55:17;24.60;99.90
9849;DHT22;4963;51.444;6.528;2023-06-19T07:57:44;25.10;99.90
9849;DHT22;4963;51.444;6.528;2023-06-19T08:00:13;25.50;99.90
9849;DHT22;4963;51.444;6.528;2023-06-19T08:02:41;25.80;99.90
9849;DHT22;4963;51.444;6.528;2023-06-19T08:05:27;26.20;99.90
9849;DHT22;4963;51.444;6.528;2023-06-19T08:07:53;26.50;99.30
9849;DHT22;4963;51.444;6.528;2023-06-19T08:10:20;26.50;98.60
9849;DHT22;4963;51.444;6.528;2023-06-19T08:12:47;26.40;99.00
9849;DHT22;4963;51.444;6.528;2023-06-19T08:15:16;26.30;98.70
9849;DHT22;4963;51.444;6.528;2023-06-19T08:17:43;26.20;98.20
9849;DHT22;4963;51.444;6.528;2023-06-19T08:20:10;26.30;98.50
9849;DHT22;4963;51.444;6.528;2023-06-19T08:22:37;26.50;98.10
9849;DHT22;4963;51.444;6.528;2023-06-19T08:25:05;26.70;97.80
9849;DHT22;4963;51.444;6.528;2023-06-19T08:27:32;26.80;97.40
9849;DHT22;4963;51.444;6.528;2023-06-19T08:29:59;26.90;97.40
9849;DHT22;4963;51.444;6.528;2023-06-19T08:32:27;26.80;96.90
9849;DHT22;4963;51.444;6.528;2023-06-19T08:34:54;26.60;96.40
9849;DHT22;4963;51.444;6.528;2023-06-19T08:37:21;26.30;96.70
9849;DHT22;4963;51.444;6.528;2023-06-19T08:39:48;26.10;97.10
9849;DHT22;4963;51.444;6.528;2023-06-19T08:42:14;26.00;97.50
9849;DHT22;4963;51.444;6.528;2023-06-19T08:44:41;25.90;97.60
9849;DHT22;4963;51.444;6.528;2023-06-19T08:47:08;25.80;97.50
9849;DHT22;4963;51.444;6.528;2023-06-19T08:49:38;25.70;97.70
9849;DHT22;4963;51.444;6.528;2023-06-19T08:52:07;25.60;98.10
9849;DHT22;4963;51.444;6.528;2023-06-19T08:54:34;25.40;98.40
9849;DHT22;4963;51.444;6.528;2023-06-19T08:57:09;25.20;98.90
9849;DHT22;4963;51.444;6.528;2023-06-19T08:59:36;25.20;99.20
9849;DHT22;4963;51.444;6.528;2023-06-19T09:02:03;25.40;98.90
9849;DHT22;4963;51.444;6.528;2023-06-19T09:04:30;25.50;98.60
9849;DHT22;4963;51.444;6.528;2023-06-19T09:07:01;25.80;97.90
9849;DHT22;4963;51.444;6.528;2023-06-19T09:09:28;26.10;97.10
9849;DHT22;4963;51.444;6.528;2023-06-19T09:12:01;26.40;96.60
9849;DHT22;4963;51.444;6.528;2023-06-19T09:14:32;26.50;96.60
9849;DHT22;4963;51.444;6.528;2023-06-19T09:17:01;26.60;96.60
9849;DHT22;4963;51.444;6.528;2023-06-19T09:19:28;26.70;96.50
9849;DHT22;4963;51.444;6.528;2023-06-19T09:22:01;26.80;95.80
9849;DHT22;4963;51.444;6.528;2023-06-19T09:24:35;26.70;95.60
9849;DHT22;4963;51.444;6.528;2023-06-19T09:27:06;26.80;95.60
9849;DHT22;4963;51.444;6.528;2023-06-19T09:29:36;27.00;95.70
9849;DHT22;4963;51.444;6.528;2023-06-19T09:32:15;27.10;95.10
9849;DHT22;4963;51.444;6.528;2023-06-19T09:34:41;27.30;94.70
9849;DHT22;4963;51.444;6.528;2023-06-19T09:37:10;27.50;94.20
9849;DHT22;4963;51.444;6.528;2023-06-19T09:39:38;27.60;94.10
9849;DHT22;4963;51.444;6.528;2023-06-19T09:42:07;27.70;93.70
9849;DHT22;4963;51.444;6.528;2023-06-19T09:44:40;27.60;93.50
9849;DHT22;4963;51.444;6.528;2023-06-19T09:47:15;27.70;93.60
9849;DHT22;4963;51.444;6.528;2023-06-19T09:49:48;27.80;93.50
9849;DHT22;4963;51.444;6.528;2023-06-19T09:52:18;27.90;93.30
9849;DHT22;4963;51.444;6.528;2023-06-19T09:54:47;28.10;92.80
9849;DHT22;4963;51.444;6.528;2023-06-19T09:57:16;28.20;92.70
9849;DHT22;4963;51.444;6.528;2023-06-19T09:59:43;28.40;92.50
9849;DHT22;4963;51.444;6.528;2023-06-19T10:02:12;28.50;92.30
9849;DHT22;4963;51.444;6.528;2023-06-19T10:04:44;28.60;91.90
9849;DHT22;4963;51.444;6.528;2023-06-19T10:07:20;28.80;91.80
9849;DHT22;4963;51.444;6.528;2023-06-19T10:09:58;29.00;91.30
9849;DHT22;4963;51.444;6.528;2023-06-19T10:12:39;29.10;91.50
9849;DHT22;4963;51.444;6.528;2023-06-19T10:15:11;28.90;91.20
9849;DHT22;4963;51.444;6.528;2023-06-19T10:17:48;29.00;91.40
9849;DHT22;4963;51.444;6.528;2023-06-19T10:20:23;29.10;90.60
9849;DHT22;4963;51.444;6.528;2023-06-19T10:22:56;29.30;90.60
9849;DHT22;4963;51.444;6.528;2023-06-19T10:25:24;29.40;90.70
9849;DHT22;4963;51.444;6.528;2023-06-19T10:27:51;29.50;90.10
9849;DHT22;4963;51.444;6.528;2023-06-19T10:30:20;29.50;89.60
9849;DHT22;4963;51.444;6.528;2023-06-19T10:32:47;29.40;89.90
9849;DHT22;4963;51.444;6.528;2023-06-19T10:35:16;29.20;89.50
9849;DHT22;4963;51.444;6.528;2023-06-19T10:37:43;28.90;90.00
9849;DHT22;4963;51.444;6.528;2023-06-19T10:40:18;28.70;90.40
9849;DHT22;4963;51.444;6.528;2023-06-19T10:42:46;28.80;90.00
9849;DHT22;4963;51.444;6.528;2023-06-19T10:45:14;28.70;89.80
9849;DHT22;4963;51.444;6.528;2023-06-19T10:47:42;28.60;90.00
9849;DHT22;4963;51.444;6.528;2023-06-19T10:50:10;28.60;89.00
9849;DHT22;4963;51.444;6.528;2023-06-19T10:52:40;28.40;88.30
9849;DHT22;4963;51.444;6.528;2023-06-19T10:55:09;28.10;89.00
9849;DHT22;4963;51.444;6.528;2023-06-19T10:57:38;28.10;90.20
9849;DHT22;4963;51.444;6.528;2023-06-19T11:00:06;28.20;90.00
9849;DHT22;4963;51.444;6.528;2023-06-19T11:02:39;28.40;89.20
9849;DHT22;4963;51.444;6.528;2023-06-19T11:05:09;28.50;88.50
9849;DHT22;4963;51.444;6.528;2023-06-19T11:07:36;28.60;88.60
9849;DHT22;4963;51.444;6.528;2023-06-19T11:10:04;28.70;89.50
9849;DHT22;4963;51.444;6.528;2023-06-19T11:12:32;28.90;87.90
9849;DHT22;4963;51.444;6.528;2023-06-19T11:15:03;29.10;87.60
9849;DHT22;4963;51.444;6.528;2023-06-19T11:17:31;29.20;88.40
9849;DHT22;4963;51.444;6.528;2023-06-19T11:19:58;29.20;86.60
9849;DHT22;4963;51.444;6.528;2023-06-19T11:22:36;29.20;87.30
9849;DHT22;4963;51.444;6.528;2023-06-19T11:25:04;29.30;86.20
9849;DHT22;4963;51.444;6.528;2023-06-19T11:27:32;29.40;85.80
9849;DHT22;4963;51.444;6.528;2023-06-19T11:30:02;29.40;85.00
9849;DHT22;4963;51.444;6.528;2023-06-19T11:32:32;29.40;86.40
9849;DHT22;4963;51.444;6.528;2023-06-19T11:35:05;29.40;86.20
9849;DHT22;4963;51.444;6.528;2023-06-19T11:37:33;29.40;85.50
9849;DHT22;4963;51.444;6.528;2023-06-19T11:40:01;29.30;84.10
9849;DHT22;4963;51.444;6.528;2023-06-19T11:42:44;29.10;84.10
9849;DHT22;4963;51.444;6.528;2023-06-19T11:45:13;28.90;84.40
9849;DHT22;4963;51.444;6.528;2023-06-19T11:47:40;28.80;85.60
9849;DHT22;4963;51.444;6.528;2023-06-19T11:50:07;28.90;85.60
9849;DHT22;4963;51.444;6.528;2023-06-19T11:52:34;29.00;84.30
9849;DHT22;4963;51.444;6.528;2023-06-19T11:55:01;29.10;85.50
9849;DHT22;4963;51.444;6.528;2023-06-19T11:57:28;29.10;85.10
9849;DHT22;4963;51.444;6.528;2023-06-19T11:59:55;29.10;85.40
9849;DHT22;4963;51.444;6.528;2023-06-19T12:02:23;29.20;84.70
9849;DHT22;4963;51.444;6.528;2023-06-19T12:04:50;29.10;84.00
9849;DHT22;4963;51.444;6.528;2023-06-19T12:10:40;29.10;83.50
9849;DHT22;4963;51.444;6.528;2023-06-19T12:13:06;29.20;81.70
9849;DHT22;4963;51.444;6.528;2023-06-19T12:15:34;29.00;81.90
9849;DHT22;4963;51.444;6.528;2023-06-19T12:18:03;28.90;82.20
9849;DHT22;4963;51.444;6.528;2023-06-19T12:20:29;29.00;82.00
9849;DHT22;4963;51.444;6.528;2023-06-19T12:22:56;29.10;81.10
9849;DHT22;4963;51.444;6.528;2023-06-19T12:25:23;29.20;80.70
9849;DHT22;4963;51.444;6.528;2023-06-19T12:31:03;29.20;80.20
9849;DHT22;4963;51.444;6.528;2023-06-19T12:33:32;29.30;80.00
9849;DHT22;4963;51.444;6.528;2023-06-19T12:35:59;29.30;78.60
9849;DHT22;4963;51.444;6.528;2023-06-19T12:38:26;29.20;78.50
9849;DHT22;4963;51.444;6.528;2023-06-19T12:40:53;29.10;80.10
9849;DHT22;4963;51.444;6.528;2023-06-19T12:43:20;29.10;80.70
9849;DHT22;4963;51.444;6.528;2023-06-19T12:45:47;29.10;80.30
9849;DHT22;4963;51.444;6.528;2023-06-19T12:48:14;29.20;81.20
9849;DHT22;4963;51.444;6.528;2023-06-19T12:50:42;29.30;79.90
9849;DHT22;4963;51.444;6.528;2023-06-19T12:53:09;29.40;79.50
9849;DHT22;4963;51.444;6.528;2023-06-19T12:55:37;29.50;81.10
9849;DHT22;4963;51.444;6.528;2023-06-19T12:58:04;29.70;79.60
9849;DHT22;4963;51.444;6.528;2023-06-19T13:00:31;29.70;79.60
9849;DHT22;4963;51.444;6.528;2023-06-19T13:02:58;29.80;78.90
9849;DHT22;4963;51.444;6.528;2023-06-19T13:05:24;29.70;77.60
9849;DHT22;4963;51.444;6.528;2023-06-19T13:07:53;29.50;77.10
9849;DHT22;4963;51.444;6.528;2023-06-19T13:10:20;29.60;78.50
9849;DHT22;4963;51.444;6.528;2023-06-19T13:12:47;29.60;78.10
9849;DHT22;4963;51.444;6.528;2023-06-19T13:15:15;29.60;78.00
9849;DHT22;4963;51.444;6.528;2023-06-19T13:20:47;29.80;78.10
9849;DHT22;4963;51.444;6.528;2023-06-19T13:23:16;29.70;78.00
9849;DHT22;4963;51.444;6.528;2023-06-19T13:25:43;29.60;78.50
9849;DHT22;4963;51.444;6.528;2023-06-19T13:28:10;29.50;76.90
9849;DHT22;4963;51.444;6.528;2023-06-19T13:30:37;29.50;77.30
9849;DHT22;4963;51.444;6.528;2023-06-19T13:33:04;29.60;78.70
9849;DHT22;4963;51.444;6.528;2023-06-19T13:35:32;29.70;78.70
9849;DHT22;4963;51.444;6.528;2023-06-19T13:37:59;29.70;78.50
9849;DHT22;4963;51.444;6.528;2023-06-19T13:40:27;29.60;77.90
9849;DHT22;4963;51.444;6.528;2023-06-19T13:42:54;29.60;78.30
9849;DHT22;4963;51.444;6.528;2023-06-19T13:45:21;29.70;78.00
9849;DHT22;4963;51.444;6.528;2023-06-19T13:47:48;29.70;77.20
9849;DHT22;4963;51.444;6.528;2023-06-19T13:50:15;29.50;77.30
9849;DHT22;4963;51.444;6.528;2023-06-19T13:52:44;29.50;79.20
9849;DHT22;4963;51.444;6.528;2023-06-19T13:55:11;29.60;78.40
9849;DHT22;4963;51.444;6.528;2023-06-19T13:57:40;29.70;77.50
9849;DHT22;4963;51.444;6.528;2023-06-19T14:00:08;29.70;77.10
9849;DHT22;4963;51.444;6.528;2023-06-19T14:02:36;29.70;75.50
9849;DHT22;4963;51.444;6.528;2023-06-19T14:05:04;29.40;76.80
9849;DHT22;4963;51.444;6.528;2023-06-19T14:07:31;29.40;77.40
9849;DHT22;4963;51.444;6.528;2023-06-19T14:09:59;29.50;77.70
9849;DHT22;4963;51.444;6.528;2023-06-19T14:12:26;29.60;78.80
9849;DHT22;4963;51.444;6.528;2023-06-19T14:14:54;29.70;77.80
9849;DHT22;4963;51.444;6.528;2023-06-19T14:17:22;29.80;78.00
9849;DHT22;4963;51.444;6.528;2023-06-19T14:19:49;29.90;75.90
9849;DHT22;4963;51.444;6.528;2023-06-19T14:22:16;29.70;75.60
9849;DHT22;4963;51.444;6.528;2023-06-19T14:24:43;29.50;75.90
9849;DHT22;4963;51.444;6.528;2023-06-19T14:27:10;29.50;77.50
9849;DHT22;4963;51.444;6.528;2023-06-19T14:29:38;29.60;77.20
9849;DHT22;4963;51.444;6.528;2023-06-19T14:32:06;29.70;77.50
9849;DHT22;4963;51.444;6.528;2023-06-19T14:34:33;29.70;77.60
9849;DHT22;4963;51.444;6.528;2023-06-19T14:37:00;29.80;76.50
9849;DHT22;4963;51.444;6.528;2023-06-19T14:39:27;29.80;76.30
9849;DHT22;4963;51.444;6.528;2023-06-19T14:41:53;29.80;75.40
9849;DHT22;4963;51.444;6.528;2023-06-19T14:44:20;29.80;76.60
9849;DHT22;4963;51.444;6.528;2023-06-19T14:46:48;29.90;75.00
9849;DHT22;4963;51.444;6.528;2023-06-19T14:49:16;30.00;75.70
9849;DHT22;4963;51.444;6.528;2023-06-19T14:51:43;30.00;74.80
9849;DHT22;4963;51.444;6.528;2023-06-19T14:54:10;30.10;75.40
9849;DHT22;4963;51.444;6.528;2023-06-19T14:56:36;30.10;74.20
9849;DHT22;4963;51.444;6.528;2023-06-19T14:59:03;30.10;73.80
9849;DHT22;4963;51.444;6.528;2023-06-19T15:04:54;30.00;74.60
9849;DHT22;4963;51.444;6.528;2023-06-19T15:07:21;29.90;74.40
9849;DHT22;4963;51.444;6.528;2023-06-19T15:09:47;29.90;74.10
9849;DHT22;4963;51.444;6.528;2023-06-19T15:12:14;29.90;73.30
9849;DHT22;4963;51.444;6.528;2023-06-19T15:14:41;29.80;73.30
9849;DHT22;4963;51.444;6.528;2023-06-19T15:17:08;29.80;73.10
9849;DHT22;4963;51.444;6.528;2023-06-19T15:19:35;29.70;73.00
9849;DHT22;4963;51.444;6.528;2023-06-19T15:22:04;29.60;73.00
9849;DHT22;4963;51.444;6.528;2023-06-19T15:24:31;29.50;71.60
9849;DHT22;4963;51.444;6.528;2023-06-19T15:26:58;29.40;72.40
9849;DHT22;4963;51.444;6.528;2023-06-19T15:29:26;29.40;72.40
9849;DHT22;4963;51.444;6.528;2023-06-19T15:31:53;29.50;73.20
9849;DHT22;4963;51.444;6.528;2023-06-19T15:34:20;29.60;73.50
9849;DHT22;4963;51.444;6.528;2023-06-19T15:36:47;29.60;72.10
9849;DHT22;4963;51.444;6.528;2023-06-19T15:39:15;29.60;73.00
9849;DHT22;4963;51.444;6.528;2023-06-19T15:41:43;29.60;73.40
9849;DHT22;4963;51.444;6.528;2023-06-19T15:44:11;29.50;71.10
9849;DHT22;4963;51.444;6.528;2023-06-19T15:46:37;29.30;70.90
9849;DHT22;4963;51.444;6.528;2023-06-19T15:49:04;29.10;73.00
9849;DHT22;4963;51.444;6.528;2023-06-19T15:51:31;29.10;72.20
9849;DHT22;4963;51.444;6.528;2023-06-19T15:53:58;29.10;72.70
9849;DHT22;4963;51.444;6.528;2023-06-19T15:56:26;29.10;72.30
9849;DHT22;4963;51.444;6.528;2023-06-19T15:58:54;29.20;72.40
9849;DHT22;4963;51.444;6.528;2023-06-19T16:01:22;29.20;73.10
9849;DHT22;4963;51.444;6.528;2023-06-19T16:03:49;29.30;73.50
9849;DHT22;4963;51.444;6.528;2023-06-19T16:06:16;29.30;73.60
9849;DHT22;4963;51.444;6.528;2023-06-19T16:08:43;29.40;73.60
9849;DHT22;4963;51.444;6.528;2023-06-19T16:11:10;29.40;72.80
9849;DHT22;4963;51.444;6.528;2023-06-19T16:13:40;29.40;73.40
9849;DHT22;4963;51.444;6.528;2023-06-19T16:16:07;29.30;73.40
9849;DHT22;4963;51.444;6.528;2023-06-19T16:18:34;29.30;74.70
9849;DHT22;4963;51.444;6.528;2023-06-19T16:21:01;29.30;72.00